sensor_id;sensor_type;location;lat;lon;timestamp;P1;durP1;ratioP1;P2;durP2;ratioP2
22652;SDS011;11493;43.344;26.226;2023-04-03T00:01:02;9.75;;;7.53;;
22652;SDS011;11493;43.344;26.226;2023-04-03T00:03:30;12.68;;;7.57;;
22652;SDS011;11493;43.344;26.226;2023-04-03T00:05:58;10.27;;;6.22;;
22652;SDS011;11493;43.344;26.226;2023-04-03T00:08:25;8.07;;;6.85;;
22652;SDS011;11493;43.344;26.226;2023-04-03T00:10:52;13.55;;;6.95;;
22652;SDS011;11493;43.344;26.226;2023-04-03T00:13:20;6.47;;;5.45;;
22652;SDS011;11493;43.344;26.226;2023-04-03T00:15:47;9.32;;;5.85;;
22652;SDS011;11493;43.344;26.226;2023-04-03T00:18:14;7.78;;;5.35;;
22652;SDS011;11493;43.344;26.226;2023-04-03T00:20:41;6.40;;;4.85;;
22652;SDS011;11493;43.344;26.226;2023-04-03T00:23:08;7.75;;;5.10;;
22652;SDS011;11493;43.344;26.226;2023-04-03T00:25:35;8.88;;;5.43;;
22652;SDS011;11493;43.344;26.226;2023-04-03T00:28:03;5.57;;;5.07;;
22652;SDS011;11493;43.344;26.226;2023-04-03T00:30:31;7.05;;;6.35;;
22652;SDS011;11493;43.344;26.226;2023-04-03T00:32:59;13.93;;;9.27;;
22652;SDS011;11493;43.344;26.226;2023-04-03T00:35:27;11.35;;;7.97;;
22652;SDS011;11493;43.344;26.226;2023-04-03T00:37:55;7.30;;;4.90;;
22652;SDS011;11493;43.344;26.226;2023-04-03T00:40:22;6.50;;;4.80;;
22652;SDS011;11493;43.344;26.226;2023-04-03T00:42:57;4.88;;;4.47;;
22652;SDS011;11493;43.344;26.226;2023-04-03T00:45:28;5.53;;;4.45;;
22652;SDS011;11493;43.344;26.226;2023-04-03T00:47:57;6.97;;;6.10;;
22652;SDS011;11493;43.344;26.226;2023-04-03T00:50:28;7.32;;;6.00;;
22652;SDS011;11493;43.344;26.226;2023-04-03T00:52:56;8.77;;;6.00;;
22652;SDS011;11493;43.344;26.226;2023-04-03T00:55:25;7.85;;;5.95;;
22652;SDS011;11493;43.344;26.226;2023-04-03T00:57:53;6.30;;;5.70;;
22652;SDS011;11493;43.344;26.226;2023-04-03T01:00:23;9.45;;;5.68;;
22652;SDS011;11493;43.344;26.226;2023-04-03T01:02:51;5.95;;;4.18;;
22652;SDS011;11493;43.344;26.226;2023-04-03T01:05:19;6.72;;;5.47;;
22652;SDS011;11493;43.344;26.226;2023-04-03T01:07:49;7.20;;;5.47;;
22652;SDS011;11493;43.344;26.226;2023-04-03T01:10:18;7.40;;;5.88;;
22652;SDS011;11493;43.344;26.226;2023-04-03T01:12:48;8.10;;;5.50;;
22652;SDS011;11493;43.344;26.226;2023-04-03T01:15:24;7.55;;;5.53;;
22652;SDS011;11493;43.344;26.226;2023-04-03T01:17:56;8.35;;;5.13;;
22652;SDS011;11493;43.344;26.226;2023-04-03T01:25:33;8.32;;;5.13;;
22652;SDS011;11493;43.344;26.226;2023-04-03T01:28:03;9.18;;;6.07;;
22652;SDS011;11493;43.344;26.226;2023-04-03T01:30:41;9.40;;;6.63;;
22652;SDS011;11493;43.344;26.226;2023-04-03T01:33:23;8.40;;;5.05;;
22652;SDS011;11493;43.344;26.226;2023-04-03T01:35:50;9.13;;;7.25;;
22652;SDS011;11493;43.344;26.226;2023-04-03T01:38:18;6.78;;;6.15;;
22652;SDS011;11493;43.344;26.226;2023-04-03T01:40:45;12.30;;;7.55;;
22652;SDS011;11493;43.344;26.226;2023-04-03T01:43:13;8.73;;;6.78;;
22652;SDS011;11493;43.344;26.226;2023-04-03T01:45:40;8.48;;;6.97;;
22652;SDS011;11493;43.344;26.226;2023-04-03T01:48:07;5.32;;;4.70;;
22652;SDS011;11493;43.344;26.226;2023-04-03T01:50:35;7.80;;;5.32;;
22652;SDS011;11493;43.344;26.226;2023-04-03T01:53:03;4.53;;;3.90;;
22652;SDS011;11493;43.344;26.226;2023-04-03T01:55:32;5.00;;;4.15;;
22652;SDS011;11493;43.344;26.226;2023-04-03T01:57:59;5.43;;;3.88;;
22652;SDS011;11493;43.344;26.226;2023-04-03T02:00:26;4.63;;;4.22;;
22652;SDS011;11493;43.344;26.226;2023-04-03T02:02:54;5.15;;;4.65;;
22652;SDS011;11493;43.344;26.226;2023-04-03T02:05:22;7.25;;;5.20;;
22652;SDS011;11493;43.344;26.226;2023-04-03T02:07:50;6.82;;;4.65;;
22652;SDS011;11493;43.344;26.226;2023-04-03T02:10:18;7.60;;;4.25;;
22652;SDS011;11493;43.344;26.226;2023-04-03T02:12:45;3.95;;;3.55;;
22652;SDS011;11493;43.344;26.226;2023-04-03T02:15:13;6.32;;;4.15;;
22652;SDS011;11493;43.344;26.226;2023-04-03T02:17:40;4.97;;;4.00;;
22652;SDS011;11493;43.344;26.226;2023-04-03T02:20:07;6.22;;;4.38;;
22652;SDS011;11493;43.344;26.226;2023-04-03T02:22:35;9.23;;;4.65;;
22652;SDS011;11493;43.344;26.226;2023-04-03T02:25:03;4.95;;;4.13;;
22652;SDS011;11493;43.344;26.226;2023-04-03T02:27:30;4.50;;;4.10;;
22652;SDS011;11493;43.344;26.226;2023-04-03T02:29:58;7.20;;;4.38;;
22652;SDS011;11493;43.344;26.226;2023-04-03T02:32:26;5.68;;;4.25;;
22652;SDS011;11493;43.344;26.226;2023-04-03T02:34:53;5.80;;;5.22;;
22652;SDS011;11493;43.344;26.226;2023-04-03T02:37:21;9.95;;;7.85;;
22652;SDS011;11493;43.344;26.226;2023-04-03T02:39:50;13.50;;;8.20;;
22652;SDS011;11493;43.344;26.226;2023-04-03T02:42:17;9.65;;;7.68;;
22652;SDS011;11493;43.344;26.226;2023-04-03T02:44:45;10.10;;;7.25;;
22652;SDS011;11493;43.344;26.226;2023-04-03T02:47:13;13.48;;;8.35;;
22652;SDS011;11493;43.344;26.226;2023-04-03T02:49:40;33.65;;;16.63;;
22652;SDS011;11493;43.344;26.226;2023-04-03T02:52:08;14.98;;;8.75;;
22652;SDS011;11493;43.344;26.226;2023-04-03T02:54:37;11.80;;;7.70;;
22652;SDS011;11493;43.344;26.226;2023-04-03T02:57:07;15.35;;;9.27;;
22652;SDS011;11493;43.344;26.226;2023-04-03T02:59:37;19.88;;;8.82;;
22652;SDS011;11493;43.344;26.226;2023-04-03T03:02:09;13.20;;;8.80;;
22652;SDS011;11493;43.344;26.226;2023-04-03T03:04:37;19.08;;;8.52;;
22652;SDS011;11493;43.344;26.226;2023-04-03T03:07:04;19.08;;;9.27;;
22652;SDS011;11493;43.344;26.226;2023-04-03T03:09:32;14.68;;;9.63;;
22652;SDS011;11493;43.344;26.226;2023-04-03T03:12:00;17.98;;;11.43;;
22652;SDS011;11493;43.344;26.226;2023-04-03T03:14:28;23.05;;;13.98;;
22652;SDS011;11493;43.344;26.226;2023-04-03T03:16:56;22.90;;;15.23;;
22652;SDS011;11493;43.344;26.226;2023-04-03T03:19:23;24.13;;;14.18;;
22652;SDS011;11493;43.344;26.226;2023-04-03T03:21:51;18.52;;;13.07;;
22652;SDS011;11493;43.344;26.226;2023-04-03T03:24:19;27.00;;;13.82;;
22652;SDS011;11493;43.344;26.226;2023-04-03T03:26:46;13.40;;;12.05;;
22652;SDS011;11493;43.344;26.226;2023-04-03T03:29:14;16.10;;;12.57;;
22652;SDS011;11493;43.344;26.226;2023-04-03T03:31:41;19.08;;;14.18;;
22652;SDS011;11493;43.344;26.226;2023-04-03T03:34:09;16.70;;;13.70;;
22652;SDS011;11493;43.344;26.226;2023-04-03T03:36:37;19.83;;;14.10;;
22652;SDS011;11493;43.344;26.226;2023-04-03T03:39:04;18.48;;;13.52;;
22652;SDS011;11493;43.344;26.226;2023-04-03T03:41:32;22.30;;;12.85;;
22652;SDS011;11493;43.344;26.226;2023-04-03T03:43:59;14.20;;;11.35;;
22652;SDS011;11493;43.344;26.226;2023-04-03T03:46:28;18.45;;;12.68;;
22652;SDS011;11493;43.344;26.226;2023-04-03T03:48:55;16.70;;;11.90;;
22652;SDS011;11493;43.344;26.226;2023-04-03T03:51:22;17.17;;;12.25;;
22652;SDS011;11493;43.344;26.226;2023-04-03T03:53:50;20.52;;;12.15;;
22652;SDS011;11493;43.344;26.226;2023-04-03T03:56:18;13.80;;;11.02;;
22652;SDS011;11493;43.344;26.226;2023-04-03T03:58:46;17.30;;;11.25;;
22652;SDS011;11493;43.344;26.226;2023-04-03T04:01:14;20.88;;;12.88;;
22652;SDS011;11493;43.344;26.226;2023-04-03T04:06:16;20.17;;;14.38;;
22652;SDS011;11493;43.344;26.226;2023-04-03T04:08:44;23.75;;;15.30;;
22652;SDS011;11493;43.344;26.226;2023-04-03T04:11:12;32.97;;;18.50;;
22652;SDS011;11493;43.344;26.226;2023-04-03T04:16:44;65.78;;;28.08;;
22652;SDS011;11493;43.344;26.226;2023-04-03T04:19:16;30.45;;;18.50;;
22652;SDS011;11493;43.344;26.226;2023-04-03T04:21:44;30.80;;;20.30;;
22652;SDS011;11493;43.344;26.226;2023-04-03T04:24:12;31.40;;;19.17;;
22652;SDS011;11493;43.344;26.226;2023-04-03T04:26:39;37.78;;;21.23;;
22652;SDS011;11493;43.344;26.226;2023-04-03T04:29:09;36.22;;;19.75;;
22652;SDS011;11493;43.344;26.226;2023-04-03T04:31:37;37.15;;;21.88;;
22652;SDS011;11493;43.344;26.226;2023-04-03T04:34:04;55.80;;;28.90;;
22652;SDS011;11493;43.344;26.226;2023-04-03T04:36:32;97.03;;;58.22;;
22652;SDS011;11493;43.344;26.226;2023-04-03T04:38:59;57.13;;;33.97;;
22652;SDS011;11493;43.344;26.226;2023-04-03T04:41:27;85.57;;;50.55;;
22652;SDS011;11493;43.344;26.226;2023-04-03T04:43:54;80.10;;;46.58;;
22652;SDS011;11493;43.344;26.226;2023-04-03T04:46:22;72.63;;;41.25;;
22652;SDS011;11493;43.344;26.226;2023-04-03T04:48:54;51.10;;;28.30;;
22652;SDS011;11493;43.344;26.226;2023-04-03T04:51:24;43.95;;;26.20;;
22652;SDS011;11493;43.344;26.226;2023-04-03T04:53:54;54.63;;;29.88;;
22652;SDS011;11493;43.344;26.226;2023-04-03T04:56:25;71.82;;;40.45;;
22652;SDS011;11493;43.344;26.226;2023-04-03T04:58:55;36.03;;;19.95;;
22652;SDS011;11493;43.344;26.226;2023-04-03T05:01:23;26.35;;;16.15;;
22652;SDS011;11493;43.344;26.226;2023-04-03T05:03:57;32.38;;;15.77;;
22652;SDS011;11493;43.344;26.226;2023-04-03T05:06:35;34.25;;;20.55;;
22652;SDS011;11493;43.344;26.226;2023-04-03T05:09:06;49.67;;;23.20;;
22652;SDS011;11493;43.344;26.226;2023-04-03T05:11:34;46.63;;;23.27;;
22652;SDS011;11493;43.344;26.226;2023-04-03T05:14:03;47.88;;;24.02;;
22652;SDS011;11493;43.344;26.226;2023-04-03T05:16:34;49.38;;;24.90;;
22652;SDS011;11493;43.344;26.226;2023-04-03T05:19:02;54.55;;;25.98;;
22652;SDS011;11493;43.344;26.226;2023-04-03T05:21:30;61.33;;;32.53;;
22652;SDS011;11493;43.344;26.226;2023-04-03T05:24:04;52.47;;;27.77;;
22652;SDS011;11493;43.344;26.226;2023-04-03T05:26:33;52.22;;;27.15;;
22652;SDS011;11493;43.344;26.226;2023-04-03T05:29:01;44.90;;;26.65;;
22652;SDS011;11493;43.344;26.226;2023-04-03T05:31:27;47.17;;;26.65;;
22652;SDS011;11493;43.344;26.226;2023-04-03T05:33:59;52.35;;;26.40;;
22652;SDS011;11493;43.344;26.226;2023-04-03T05:36:31;47.05;;;26.63;;
22652;SDS011;11493;43.344;26.226;2023-04-03T05:39:07;56.58;;;30.15;;
22652;SDS011;11493;43.344;26.226;2023-04-03T05:41:37;56.87;;;28.77;;
22652;SDS011;11493;43.344;26.226;2023-04-03T05:44:04;58.58;;;26.52;;
22652;SDS011;11493;43.344;26.226;2023-04-03T05:46:32;50.08;;;25.75;;
22652;SDS011;11493;43.344;26.226;2023-04-03T05:49:03;41.03;;;22.58;;
22652;SDS011;11493;43.344;26.226;2023-04-03T05:51:34;47.55;;;23.90;;
22652;SDS011;11493;43.344;26.226;2023-04-03T05:54:24;60.95;;;25.85;;
22652;SDS011;11493;43.344;26.226;2023-04-03T05:56:59;56.38;;;27.23;;
22652;SDS011;11493;43.344;26.226;2023-04-03T05:59:27;56.95;;;31.98;;
22652;SDS011;11493;43.344;26.226;2023-04-03T06:01:57;51.15;;;26.20;;
22652;SDS011;11493;43.344;26.226;2023-04-03T06:04:24;41.17;;;24.00;;
22652;SDS011;11493;43.344;26.226;2023-04-03T06:06:52;47.15;;;25.80;;
22652;SDS011;11493;43.344;26.226;2023-04-03T06:09:21;50.08;;;25.58;;
22652;SDS011;11493;43.344;26.226;2023-04-03T06:11:52;54.20;;;28.83;;
22652;SDS011;11493;43.344;26.226;2023-04-03T06:14:21;56.50;;;29.13;;
22652;SDS011;11493;43.344;26.226;2023-04-03T06:16:49;60.10;;;29.13;;
22652;SDS011;11493;43.344;26.226;2023-04-03T06:19:17;53.63;;;24.95;;
22652;SDS011;11493;43.344;26.226;2023-04-03T06:21:48;36.03;;;18.98;;
22652;SDS011;11493;43.344;26.226;2023-04-03T06:24:19;31.95;;;16.77;;
22652;SDS011;11493;43.344;26.226;2023-04-03T06:26:48;25.23;;;14.52;;
22652;SDS011;11493;43.344;26.226;2023-04-03T06:29:17;16.90;;;10.88;;
22652;SDS011;11493;43.344;26.226;2023-04-03T06:31:45;10.63;;;6.25;;
22652;SDS011;11493;43.344;26.226;2023-04-03T06:34:12;14.85;;;7.35;;
22652;SDS011;11493;43.344;26.226;2023-04-03T06:36:42;5.35;;;3.92;;
22652;SDS011;11493;43.344;26.226;2023-04-03T06:39:13;3.78;;;2.95;;
22652;SDS011;11493;43.344;26.226;2023-04-03T06:41:43;4.25;;;2.53;;
22652;SDS011;11493;43.344;26.226;2023-04-03T06:44:11;4.35;;;2.72;;
22652;SDS011;11493;43.344;26.226;2023-04-03T06:46:40;8.27;;;2.45;;
22652;SDS011;11493;43.344;26.226;2023-04-03T06:49:07;3.22;;;2.60;;
22652;SDS011;11493;43.344;26.226;2023-04-03T06:51:35;4.70;;;2.10;;
22652;SDS011;11493;43.344;26.226;2023-04-03T06:54:04;4.07;;;2.65;;
22652;SDS011;11493;43.344;26.226;2023-04-03T06:56:33;3.55;;;1.70;;
22652;SDS011;11493;43.344;26.226;2023-04-03T06:59:00;2.10;;;1.50;;
22652;SDS011;11493;43.344;26.226;2023-04-03T07:01:28;2.55;;;1.80;;
22652;SDS011;11493;43.344;26.226;2023-04-03T07:03:59;1.45;;;1.30;;
22652;SDS011;11493;43.344;26.226;2023-04-03T07:06:26;1.33;;;1.23;;
22652;SDS011;11493;43.344;26.226;2023-04-03T07:08:54;5.72;;;1.42;;
22652;SDS011;11493;43.344;26.226;2023-04-03T07:11:22;3.15;;;1.40;;
22652;SDS011;11493;43.344;26.226;2023-04-03T07:13:49;2.25;;;1.00;;
22652;SDS011;11493;43.344;26.226;2023-04-03T07:16:18;1.95;;;1.30;;
22652;SDS011;11493;43.344;26.226;2023-04-03T07:18:45;5.07;;;1.10;;
22652;SDS011;11493;43.344;26.226;2023-04-03T07:21:13;1.27;;;0.90;;
22652;SDS011;11493;43.344;26.226;2023-04-03T07:23:40;1.27;;;1.00;;
22652;SDS011;11493;43.344;26.226;2023-04-03T07:26:07;2.03;;;1.08;;
22652;SDS011;11493;43.344;26.226;2023-04-03T07:28:34;3.17;;;1.00;;
22652;SDS011;11493;43.344;26.226;2023-04-03T07:31:06;2.88;;;1.33;;
22652;SDS011;11493;43.344;26.226;2023-04-03T07:33:35;2.28;;;0.90;;
22652;SDS011;11493;43.344;26.226;2023-04-03T07:36:04;3.33;;;1.30;;
22652;SDS011;11493;43.344;26.226;2023-04-03T07:38:34;5.20;;;1.00;;
22652;SDS011;11493;43.344;26.226;2023-04-03T07:41:03;1.08;;;0.82;;
22652;SDS011;11493;43.344;26.226;2023-04-03T07:43:30;7.57;;;1.20;;
22652;SDS011;11493;43.344;26.226;2023-04-03T07:45:58;2.47;;;0.93;;
22652;SDS011;11493;43.344;26.226;2023-04-03T07:48:25;4.18;;;1.70;;
22652;SDS011;11493;43.344;26.226;2023-04-03T07:50:53;1.27;;;0.90;;
22652;SDS011;11493;43.344;26.226;2023-04-03T07:53:20;0.85;;;0.85;;
22652;SDS011;11493;43.344;26.226;2023-04-03T07:55:48;0.77;;;0.77;;
22652;SDS011;11493;43.344;26.226;2023-04-03T07:58:18;1.63;;;0.80;;
22652;SDS011;11493;43.344;26.226;2023-04-03T08:00:45;1.15;;;0.85;;
22652;SDS011;11493;43.344;26.226;2023-04-03T08:03:12;1.17;;;1.00;;
22652;SDS011;11493;43.344;26.226;2023-04-03T08:05:40;2.85;;;0.90;;
22652;SDS011;11493;43.344;26.226;2023-04-03T08:08:09;1.83;;;0.85;;
22652;SDS011;11493;43.344;26.226;2023-04-03T08:10:38;0.65;;;0.60;;
22652;SDS011;11493;43.344;26.226;2023-04-03T08:13:06;0.85;;;0.70;;
22652;SDS011;11493;43.344;26.226;2023-04-03T08:15:33;2.70;;;0.90;;
22652;SDS011;11493;43.344;26.226;2023-04-03T08:18:04;1.50;;;0.77;;
22652;SDS011;11493;43.344;26.226;2023-04-03T08:20:31;69.88;;;3.03;;
22652;SDS011;11493;43.344;26.226;2023-04-03T08:22:58;1.90;;;0.98;;
22652;SDS011;11493;43.344;26.226;2023-04-03T08:25:25;5.10;;;1.15;;
22652;SDS011;11493;43.344;26.226;2023-04-03T08:27:53;1.10;;;0.80;;
22652;SDS011;11493;43.344;26.226;2023-04-03T08:30:19;6.40;;;1.60;;
22652;SDS011;11493;43.344;26.226;2023-04-03T08:32:46;8.55;;;0.90;;
22652;SDS011;11493;43.344;26.226;2023-04-03T08:35:13;0.70;;;0.70;;
22652;SDS011;11493;43.344;26.226;2023-04-03T08:37:41;1.35;;;0.80;;
22652;SDS011;11493;43.344;26.226;2023-04-03T08:40:11;1.50;;;0.75;;
22652;SDS011;11493;43.344;26.226;2023-04-03T08:45:40;2.70;;;0.90;;
22652;SDS011;11493;43.344;26.226;2023-04-03T08:51:13;4.63;;;1.08;;
22652;SDS011;11493;43.344;26.226;2023-04-03T08:53:55;0.93;;;0.90;;
22652;SDS011;11493;43.344;26.226;2023-04-03T08:56:30;0.98;;;0.60;;
22652;SDS011;11493;43.344;26.226;2023-04-03T08:59:00;0.75;;;0.65;;
22652;SDS011;11493;43.344;26.226;2023-04-03T09:01:38;2.45;;;0.88;;
22652;SDS011;11493;43.344;26.226;2023-04-03T09:04:13;1.00;;;0.77;;
22652;SDS011;11493;43.344;26.226;2023-04-03T09:06:44;0.38;;;0.38;;
22652;SDS011;11493;43.344;26.226;2023-04-03T09:12:03;1.00;;;0.60;;
22652;SDS011;11493;43.344;26.226;2023-04-03T09:14:38;2.20;;;0.40;;
22652;SDS011;11493;43.344;26.226;2023-04-03T09:19:57;2.25;;;0.70;;
22652;SDS011;11493;43.344;26.226;2023-04-03T09:22:31;1.42;;;0.88;;
22652;SDS011;11493;43.344;26.226;2023-04-03T09:25:20;0.60;;;0.60;;
22652;SDS011;11493;43.344;26.226;2023-04-03T09:27:50;1.13;;;0.60;;
22652;SDS011;11493;43.344;26.226;2023-04-03T09:30:20;0.50;;;0.50;;
22652;SDS011;11493;43.344;26.226;2023-04-03T09:32:49;0.77;;;0.60;;
22652;SDS011;11493;43.344;26.226;2023-04-03T09:35:19;3.03;;;0.60;;
22652;SDS011;11493;43.344;26.226;2023-04-03T09:40:40;1.05;;;0.73;;
22652;SDS011;11493;43.344;26.226;2023-04-03T09:43:29;0.50;;;0.47;;
22652;SDS011;11493;43.344;26.226;2023-04-03T09:46:17;0.70;;;0.70;;
22652;SDS011;11493;43.344;26.226;2023-04-03T09:49:01;1.00;;;0.70;;
22652;SDS011;11493;43.344;26.226;2023-04-03T09:51:35;4.20;;;0.60;;
22652;SDS011;11493;43.344;26.226;2023-04-03T09:57:02;1.30;;;0.65;;
22652;SDS011;11493;43.344;26.226;2023-04-03T09:59:34;0.70;;;0.60;;
22652;SDS011;11493;43.344;26.226;2023-04-03T10:02:03;0.98;;;0.70;;
22652;SDS011;11493;43.344;26.226;2023-04-03T10:04:47;1.88;;;0.80;;
22652;SDS011;11493;43.344;26.226;2023-04-03T10:10:47;0.70;;;0.70;;
22652;SDS011;11493;43.344;26.226;2023-04-03T10:13:31;6.35;;;0.73;;
22652;SDS011;11493;43.344;26.226;2023-04-03T10:16:09;7.18;;;0.90;;
22652;SDS011;11493;43.344;26.226;2023-04-03T10:18:45;1.10;;;0.90;;
22652;SDS011;11493;43.344;26.226;2023-04-03T10:26:57;1.27;;;1.08;;
22652;SDS011;11493;43.344;26.226;2023-04-03T10:35:38;9.50;;;2.28;;
22652;SDS011;11493;43.344;26.226;2023-04-03T10:46:38;1.30;;;1.20;;
22652;SDS011;11493;43.344;26.226;2023-04-03T10:49:31;1.42;;;1.00;;
22652;SDS011;11493;43.344;26.226;2023-04-03T10:57:54;1.30;;;1.05;;
22652;SDS011;11493;43.344;26.226;2023-04-03T11:00:41;1.30;;;0.80;;
22652;SDS011;11493;43.344;26.226;2023-04-03T11:03:16;0.80;;;0.80;;
22652;SDS011;11493;43.344;26.226;2023-04-03T11:05:55;11.30;;;1.25;;
22652;SDS011;11493;43.344;26.226;2023-04-03T11:08:44;1.80;;;0.93;;
22652;SDS011;11493;43.344;26.226;2023-04-03T11:11:19;5.38;;;0.70;;
22652;SDS011;11493;43.344;26.226;2023-04-03T11:16:26;3.00;;;0.80;;
22652;SDS011;11493;43.344;26.226;2023-04-03T11:19:03;5.78;;;0.90;;
22652;SDS011;11493;43.344;26.226;2023-04-03T11:21:41;2.70;;;0.60;;
22652;SDS011;11493;43.344;26.226;2023-04-03T11:24:16;1.10;;;0.70;;
22652;SDS011;11493;43.344;26.226;2023-04-03T11:26:48;1.58;;;0.63;;
22652;SDS011;11493;43.344;26.226;2023-04-03T11:29:22;4.78;;;0.60;;
22652;SDS011;11493;43.344;26.226;2023-04-03T11:32:17;4.35;;;0.55;;
22652;SDS011;11493;43.344;26.226;2023-04-03T11:34:51;1.05;;;0.55;;
22652;SDS011;11493;43.344;26.226;2023-04-03T11:37:35;0.70;;;0.70;;
22652;SDS011;11493;43.344;26.226;2023-04-03T11:40:08;0.82;;;0.65;;
22652;SDS011;11493;43.344;26.226;2023-04-03T11:42:40;1.88;;;0.80;;
22652;SDS011;11493;43.344;26.226;2023-04-03T11:47:56;5.38;;;2.63;;
22652;SDS011;11493;43.344;26.226;2023-04-03T11:50:41;2.75;;;1.88;;
22652;SDS011;11493;43.344;26.226;2023-04-03T11:53:26;0.75;;;0.75;;
22652;SDS011;11493;43.344;26.226;2023-04-03T12:04:26;4.18;;;1.13;;
22652;SDS011;11493;43.344;26.226;2023-04-03T12:07:02;2.75;;;1.00;;
22652;SDS011;11493;43.344;26.226;2023-04-03T12:12:34;1.00;;;0.80;;
22652;SDS011;11493;43.344;26.226;2023-04-03T12:17:53;6.28;;;1.10;;
22652;SDS011;11493;43.344;26.226;2023-04-03T12:23:28;1.25;;;1.10;;
22652;SDS011;11493;43.344;26.226;2023-04-03T12:26:05;2.08;;;0.80;;
22652;SDS011;11493;43.344;26.226;2023-04-03T12:35:55;1.38;;;0.75;;
22652;SDS011;11493;43.344;26.226;2023-04-03T12:46:52;1.83;;;0.85;;
22652;SDS011;11493;43.344;26.226;2023-04-03T12:52:04;6.78;;;1.88;;
22652;SDS011;11493;43.344;26.226;2023-04-03T12:54:46;5.10;;;1.73;;
22652;SDS011;11493;43.344;26.226;2023-04-03T12:57:20;8.88;;;3.10;;
22652;SDS011;11493;43.344;26.226;2023-04-03T12:59:55;6.53;;;3.30;;
22652;SDS011;11493;43.344;26.226;2023-04-03T13:02:31;3.53;;;1.60;;
22652;SDS011;11493;43.344;26.226;2023-04-03T13:05:09;9.05;;;5.13;;
22652;SDS011;11493;43.344;26.226;2023-04-03T13:07:52;8.18;;;1.20;;
22652;SDS011;11493;43.344;26.226;2023-04-03T13:10:29;16.23;;;6.03;;
22652;SDS011;11493;43.344;26.226;2023-04-03T13:13:08;9.10;;;5.15;;
22652;SDS011;11493;43.344;26.226;2023-04-03T13:15:45;5.82;;;1.85;;
22652;SDS011;11493;43.344;26.226;2023-04-03T13:21:05;2.03;;;1.48;;
22652;SDS011;11493;43.344;26.226;2023-04-03T13:23:48;6.07;;;2.55;;
22652;SDS011;11493;43.344;26.226;2023-04-03T13:26:40;3.53;;;2.53;;
22652;SDS011;11493;43.344;26.226;2023-04-03T13:29:23;1.00;;;0.88;;
22652;SDS011;11493;43.344;26.226;2023-04-03T13:31:58;1.88;;;1.10;;
22652;SDS011;11493;43.344;26.226;2023-04-03T13:34:28;1.65;;;1.38;;
22652;SDS011;11493;43.344;26.226;2023-04-03T13:37:02;2.65;;;1.98;;
22652;SDS011;11493;43.344;26.226;2023-04-03T13:39:32;8.68;;;4.05;;
22652;SDS011;11493;43.344;26.226;2023-04-03T13:42:17;3.67;;;1.30;;
22652;SDS011;11493;43.344;26.226;2023-04-03T13:45:06;2.78;;;1.20;;
22652;SDS011;11493;43.344;26.226;2023-04-03T13:47:45;7.10;;;1.45;;
22652;SDS011;11493;43.344;26.226;2023-04-03T13:50:23;5.40;;;1.23;;
22652;SDS011;11493;43.344;26.226;2023-04-03T13:52:53;4.85;;;0.80;;
22652;SDS011;11493;43.344;26.226;2023-04-03T13:58:16;3.20;;;1.15;;
22652;SDS011;11493;43.344;26.226;2023-04-03T14:06:23;2.42;;;1.50;;
22652;SDS011;11493;43.344;26.226;2023-04-03T14:08:51;2.15;;;1.30;;
22652;SDS011;11493;43.344;26.226;2023-04-03T14:11:23;2.20;;;1.35;;
22652;SDS011;11493;43.344;26.226;2023-04-03T14:14:00;9.60;;;4.15;;
22652;SDS011;11493;43.344;26.226;2023-04-03T14:16:32;4.30;;;2.28;;
22652;SDS011;11493;43.344;26.226;2023-04-03T14:19:03;4.80;;;2.65;;
22652;SDS011;11493;43.344;26.226;2023-04-03T14:21:30;4.97;;;2.67;;
22652;SDS011;11493;43.344;26.226;2023-04-03T14:23:57;2.60;;;1.92;;
22652;SDS011;11493;43.344;26.226;2023-04-03T14:26:24;9.45;;;8.55;;
22652;SDS011;11493;43.344;26.226;2023-04-03T14:28:54;3.38;;;2.33;;
22652;SDS011;11493;43.344;26.226;2023-04-03T14:31:22;21.38;;;4.05;;
22652;SDS011;11493;43.344;26.226;2023-04-03T14:33:50;11.77;;;5.75;;
22652;SDS011;11493;43.344;26.226;2023-04-03T14:36:18;107.20;;;64.38;;
22652;SDS011;11493;43.344;26.226;2023-04-03T14:38:48;17.30;;;14.10;;
22652;SDS011;11493;43.344;26.226;2023-04-03T14:41:18;13.02;;;9.73;;
22652;SDS011;11493;43.344;26.226;2023-04-03T14:43:47;6.93;;;6.22;;
22652;SDS011;11493;43.344;26.226;2023-04-03T14:46:19;10.73;;;9.00;;
22652;SDS011;11493;43.344;26.226;2023-04-03T14:49:20;5.95;;;3.78;;
22652;SDS011;11493;43.344;26.226;2023-04-03T14:51:50;10.45;;;4.38;;
22652;SDS011;11493;43.344;26.226;2023-04-03T14:54:18;6.57;;;3.63;;
22652;SDS011;11493;43.344;26.226;2023-04-03T14:56:52;13.30;;;3.65;;
22652;SDS011;11493;43.344;26.226;2023-04-03T14:59:21;4.47;;;2.00;;
22652;SDS011;11493;43.344;26.226;2023-04-03T15:01:48;2.97;;;2.65;;
22652;SDS011;11493;43.344;26.226;2023-04-03T15:04:17;3.97;;;1.63;;
22652;SDS011;11493;43.344;26.226;2023-04-03T15:06:46;5.10;;;2.05;;
22652;SDS011;11493;43.344;26.226;2023-04-03T15:16:33;3.08;;;1.80;;
22652;SDS011;11493;43.344;26.226;2023-04-03T15:19:00;5.93;;;4.78;;
22652;SDS011;11493;43.344;26.226;2023-04-03T15:21:27;5.00;;;3.42;;
22652;SDS011;11493;43.344;26.226;2023-04-03T15:23:54;2.47;;;2.03;;
22652;SDS011;11493;43.344;26.226;2023-04-03T15:26:21;5.88;;;2.90;;
22652;SDS011;11493;43.344;26.226;2023-04-03T15:28:48;4.00;;;2.72;;
22652;SDS011;11493;43.344;26.226;2023-04-03T15:31:15;5.63;;;2.80;;
22652;SDS011;11493;43.344;26.226;2023-04-03T15:33:42;3.78;;;2.50;;
22652;SDS011;11493;43.344;26.226;2023-04-03T15:36:09;8.13;;;5.22;;
22652;SDS011;11493;43.344;26.226;2023-04-03T15:38:42;11.77;;;7.78;;
22652;SDS011;11493;43.344;26.226;2023-04-03T15:41:12;10.38;;;5.00;;
22652;SDS011;11493;43.344;26.226;2023-04-03T15:43:40;7.45;;;4.20;;
22652;SDS011;11493;43.344;26.226;2023-04-03T15:46:07;7.15;;;3.33;;
22652;SDS011;11493;43.344;26.226;2023-04-03T15:48:35;4.72;;;4.32;;
22652;SDS011;11493;43.344;26.226;2023-04-03T15:51:03;6.00;;;4.13;;
22652;SDS011;11493;43.344;26.226;2023-04-03T15:53:31;4.15;;;3.70;;
22652;SDS011;11493;43.344;26.226;2023-04-03T15:55:58;7.60;;;5.05;;
22652;SDS011;11493;43.344;26.226;2023-04-03T15:58:25;10.05;;;8.45;;
22652;SDS011;11493;43.344;26.226;2023-04-03T16:00:52;5.03;;;4.53;;
22652;SDS011;11493;43.344;26.226;2023-04-03T16:03:20;8.43;;;6.88;;
22652;SDS011;11493;43.344;26.226;2023-04-03T16:05:49;6.50;;;5.90;;
22652;SDS011;11493;43.344;26.226;2023-04-03T16:08:17;9.63;;;7.18;;
22652;SDS011;11493;43.344;26.226;2023-04-03T16:10:45;13.80;;;10.10;;
22652;SDS011;11493;43.344;26.226;2023-04-03T16:13:15;12.85;;;9.45;;
22652;SDS011;11493;43.344;26.226;2023-04-03T16:15:42;14.20;;;11.85;;
22652;SDS011;11493;43.344;26.226;2023-04-03T16:18:09;16.10;;;9.48;;
22652;SDS011;11493;43.344;26.226;2023-04-03T16:20:37;14.27;;;11.60;;
22652;SDS011;11493;43.344;26.226;2023-04-03T16:23:04;15.80;;;10.60;;
22652;SDS011;11493;43.344;26.226;2023-04-03T16:25:31;23.90;;;15.63;;
22652;SDS011;11493;43.344;26.226;2023-04-03T16:28:00;51.70;;;27.50;;
22652;SDS011;11493;43.344;26.226;2023-04-03T16:30:42;51.75;;;29.45;;
22652;SDS011;11493;43.344;26.226;2023-04-03T16:33:31;26.38;;;19.30;;
22652;SDS011;11493;43.344;26.226;2023-04-03T16:35:59;15.57;;;11.45;;
22652;SDS011;11493;43.344;26.226;2023-04-03T16:38:27;23.50;;;14.95;;
22652;SDS011;11493;43.344;26.226;2023-04-03T16:40:54;13.07;;;10.50;;
22652;SDS011;11493;43.344;26.226;2023-04-03T16:43:30;12.00;;;9.73;;